Time;durP1;ratioP1;P1;durP2;ratioP2;P2;SDS_P1;SDS_P2;PMS_P1;PMS_P2;Temp;Humidity;BMP_temperature;BMP_pressure;BME280_temperature;BME280_humidity;BME280_pressure;Samples;Min_cycle;Max_cycle;Signal;HPM_P1;HPM_P2
2021/12/23 00:01:40;;;;;;;39.78;22.95;;;-0.20;99.90;;;;;;4923526;29;20436;-83
2021/12/23 00:04:06;;;;;;;47.22;23.52;;;-0.10;99.90;;;;;;4923405;29;20028;-83
2021/12/23 00:06:32;;;;;;;42.00;22.98;;;-0.20;99.90;;;;;;4907949;29;20325;-84
2021/12/23 00:09:00;;;;;;;41.33;23.02;;;-0.20;99.90;;;;;;4923178;29;20053;-84
2021/12/23 00:11:27;;;;;;;43.20;22.27;;;-0.10;99.90;;;;;;4923125;29;20122;-83
2021/12/23 00:14:03;;;;;;;42.10;21.80;;;-0.20;99.90;;;;;;4923287;29;20056;-85
2021/12/23 00:16:42;;;;;;;43.53;22.58;;;-0.20;99.90;;;;;;4923261;29;20308;-88
2021/12/23 00:19:22;;;;;;;41.28;21.48;;;-0.20;99.90;;;;;;4908370;29;20059;-84
2021/12/23 00:24:33;;;;;;;2.72;1.67;;;-0.20;99.90;;;;;;4908044;29;20048;-83
2021/12/23 00:27:00;;;;;;;17.95;9.45;;;-0.20;99.90;;;;;;4907821;29;20020;-81
2021/12/23 00:29:26;;;;;;;39.40;18.25;;;-0.20;99.90;;;;;;4922487;29;20024;-81
2021/12/23 00:31:52;;;;;;;0.00;0.00;;;-0.20;99.90;;;;;;4921480;29;20311;-82
2021/12/23 00:34:17;;;;;;;7.80;2.03;;;-0.20;99.90;;;;;;4907330;29;20032;-81
2021/12/23 00:37:03;;;;;;;6.43;6.13;;;-0.20;99.90;;;;;;4905185;29;20319;-82
2021/12/23 00:39:30;;;;;;;33.50;15.70;;;-0.20;99.90;;;;;;4924258;29;20027;-86
2021/12/23 00:42:06;;;;;;;26.30;13.55;;;-0.20;99.90;;;;;;4925705;29;20029;-81
2021/12/23 00:44:36;;;;;;;28.10;16.25;;;-0.30;99.90;;;;;;4911005;29;20079;-86
2021/12/23 00:47:03;;;;;;;16.08;8.57;;;-0.30;99.90;;;;;;4910252;29;20027;-82
2021/12/23 00:49:29;;;;;;;0.00;0.00;;;-0.20;99.90;;;;;;4909521;29;20048;-85
2021/12/23 00:51:57;;;;;;;0.10;0.10;;;-0.30;99.90;;;;;;4909692;29;20028;-83
2021/12/23 00:54:23;;;;;;;0.00;0.00;;;-0.30;99.90;;;;;;4910965;29;20039;-82
2021/12/23 00:56:51;;;;;;;0.20;0.20;;;-0.30;99.90;;;;;;4909667;29;20152;-82
2021/12/23 00:59:16;;;;;;;0.68;0.68;;;-0.30;99.90;;;;;;4910074;29;20069;-82
2021/12/23 01:01:42;;;;;;;0.00;0.00;;;-0.30;99.90;;;;;;4910610;29;20095;-84
2021/12/23 01:04:08;;;;;;;38.50;21.33;;;-0.30;99.90;;;;;;4910438;29;20311;-82
2021/12/23 01:06:34;;;;;;;49.42;23.85;;;-0.30;99.90;;;;;;4925643;29;20311;-88
2021/12/23 01:09:00;;;;;;;43.33;21.92;;;-0.30;99.90;;;;;;4925376;29;20020;-82
2021/12/23 01:11:27;;;;;;;40.97;21.35;;;-0.30;99.90;;;;;;4917525;29;20104;-81
2021/12/23 01:14:02;;;;;;;35.17;18.25;;;-0.30;99.90;;;;;;4929668;29;20091;-79
2021/12/23 01:19:13;;;;;;;33.10;14.85;;;-0.30;99.90;;;;;;4929616;29;20046;-82
2021/12/23 01:21:39;;;;;;;0.00;0.00;;;-0.30;99.90;;;;;;4929144;29;20020;-80
2021/12/23 01:26:50;;;;;;;0.65;0.65;;;-0.30;99.90;;;;;;4928959;29;20238;-79
2021/12/23 01:29:15;;;;;;;0.00;0.00;;;-0.20;99.90;;;;;;4928835;29;20024;-80
2021/12/23 01:31:43;;;;;;;0.70;0.70;;;-0.30;99.90;;;;;;4911304;29;20027;-84
2021/12/23 01:34:08;;;;;;;0.05;0.05;;;-0.30;99.90;;;;;;4912640;29;20039;-84
2021/12/23 01:36:34;;;;;;;6.78;6.32;;;-0.30;99.90;;;;;;4928053;29;20028;-89
2021/12/23 01:39:00;;;;;;;0.00;0.00;;;-0.30;99.90;;;;;;4927770;29;20020;-84
2021/12/23 01:41:28;;;;;;;34.90;18.50;;;-0.30;99.90;;;;;;4928191;29;20024;-82
2021/12/23 01:43:54;;;;;;;10.90;5.82;;;-0.30;99.90;;;;;;4927709;29;20087;-83
2021/12/23 01:46:22;;;;;;;0.40;0.40;;;-0.30;99.90;;;;;;4928330;29;20080;-83
2021/12/23 01:48:47;;;;;;;0.00;0.00;;;-0.30;99.90;;;;;;4928998;29;20091;-84
2021/12/23 01:51:13;;;;;;;0.10;0.10;;;-0.30;99.90;;;;;;4928045;29;20318;-83
2021/12/23 01:53:40;;;;;;;41.38;20.48;;;-0.30;99.90;;;;;;4927286;29;20103;-83
2021/12/23 01:56:06;;;;;;;36.97;21.65;;;-0.30;99.90;;;;;;4929104;29;20028;-82
2021/12/23 01:58:36;;;;;;;44.92;23.83;;;-0.30;99.90;;;;;;4912396;29;20024;-81
2021/12/23 02:01:03;;;;;;;42.70;23.33;;;-0.30;99.90;;;;;;4928862;29;20071;-82
2021/12/23 02:03:29;;;;;;;39.92;21.52;;;-0.40;99.90;;;;;;4928643;29;20019;-83
2021/12/23 02:05:54;;;;;;;43.60;23.25;;;-0.40;99.90;;;;;;4927110;29;20241;-84
2021/12/23 02:08:22;;;;;;;38.67;21.70;;;-0.30;99.90;;;;;;4927522;29;20095;-83
2021/12/23 02:10:48;;;;;;;4.70;4.40;;;-0.30;99.90;;;;;;4911078;29;20032;-82
2021/12/23 02:13:14;;;;;;;31.50;17.52;;;-0.40;99.90;;;;;;4928821;29;20367;-83
2021/12/23 02:15:40;;;;;;;41.42;22.33;;;-0.40;99.90;;;;;;4926679;29;20035;-84
2021/12/23 02:18:05;;;;;;;38.20;19.58;;;-0.40;99.90;;;;;;4926972;29;20103;-83
2021/12/23 02:20:33;;;;;;;0.00;0.00;;;-0.40;99.90;;;;;;4911613;29;20024;-84
2021/12/23 02:22:59;;;;;;;0.25;0.25;;;-0.40;99.90;;;;;;4927461;29;20050;-81
2021/12/23 02:25:25;;;;;;;0.00;0.00;;;-0.40;99.90;;;;;;4927457;29;20032;-82
2021/12/23 02:27:53;;;;;;;0.00;0.00;;;-0.40;99.90;;;;;;4929004;29;20054;-89
2021/12/23 02:30:23;;;;;;;5.40;2.35;;;-0.40;99.90;;;;;;4929613;29;20322;-88
2021/12/23 02:32:50;;;;;;;0.57;0.57;;;-0.40;99.90;;;;;;4912911;29;20055;-86
2021/12/23 02:35:19;;;;;;;1.93;1.60;;;-0.40;99.90;;;;;;4929487;29;20035;-87
2021/12/23 02:37:47;;;;;;;0.08;0.08;;;-0.40;99.90;;;;;;4928459;29;20063;-87
2021/12/23 02:40:27;;;;;;;28.80;16.13;;;-0.40;99.90;;;;;;4928687;29;20144;-86
2021/12/23 02:42:56;;;;;;;34.38;17.63;;;-0.40;99.90;;;;;;4929159;29;20050;-86
2021/12/23 02:45:21;;;;;;;31.38;16.08;;;-0.40;99.90;;;;;;4927634;29;20024;-82
2021/12/23 02:48:06;;;;;;;35.83;17.55;;;-0.50;99.90;;;;;;4910896;29;20031;-81
2021/12/23 02:50:31;;;;;;;9.90;8.98;;;-0.40;99.90;;;;;;4928184;29;20016;-82
2021/12/23 02:52:58;;;;;;;18.83;11.05;;;-0.50;99.90;;;;;;4926983;29;20245;-83
2021/12/23 02:55:24;;;;;;;32.88;16.48;;;-0.40;99.90;;;;;;4926390;29;20106;-82
2021/12/23 02:57:51;;;;;;;2.70;1.10;;;-0.50;99.90;;;;;;4927359;29;20039;-83
2021/12/23 03:00:17;;;;;;;28.08;14.18;;;-0.50;99.90;;;;;;4926451;29;20024;-81
2021/12/23 03:02:43;;;;;;;9.23;4.40;;;-0.50;99.90;;;;;;4909741;29;20091;-82
2021/12/23 03:05:09;;;;;;;0.00;0.00;;;-0.50;99.90;;;;;;4910669;29;20031;-81
2021/12/23 03:07:35;;;;;;;25.02;13.27;;;-0.50;99.90;;;;;;4925721;29;20103;-81
2021/12/23 03:10:04;;;;;;;14.38;7.70;;;-0.50;99.90;;;;;;4925663;29;20024;-82
2021/12/23 03:12:30;;;;;;;0.00;0.00;;;-0.50;99.90;;;;;;4925937;29;20048;-83
2021/12/23 03:14:56;;;;;;;2.55;0.90;;;-0.40;99.90;;;;;;4925803;29;20100;-81
2021/12/23 03:17:22;;;;;;;0.00;0.00;;;-0.40;99.90;;;;;;4910729;29;20269;-81
2021/12/23 03:19:48;;;;;;;0.00;0.00;;;-0.40;99.90;;;;;;4925935;29;20024;-83
2021/12/23 03:22:14;;;;;;;0.28;0.28;;;-0.40;99.90;;;;;;4910442;29;20091;-81
2021/12/23 03:24:40;;;;;;;0.30;0.30;;;-0.40;99.90;;;;;;4927107;29;20020;-84
2021/12/23 03:27:06;;;;;;;3.95;3.03;;;-0.40;99.90;;;;;;4925829;29;20024;-82
2021/12/23 03:29:32;;;;;;;31.58;12.52;;;-0.40;99.90;;;;;;4910175;29;20052;-81
2021/12/23 03:31:58;;;;;;;25.50;10.88;;;-0.40;99.90;;;;;;4925197;29;20242;-81
2021/12/23 03:34:23;;;;;;;22.50;11.60;;;-0.40;99.90;;;;;;4926656;29;20101;-82
2021/12/23 03:36:49;;;;;;;22.80;10.55;;;-0.40;99.90;;;;;;4926584;29;20028;-82
2021/12/23 03:39:15;;;;;;;17.20;8.48;;;-0.40;99.90;;;;;;4925600;29;20207;-82
2021/12/23 03:41:41;;;;;;;16.63;8.20;;;-0.40;99.90;;;;;;4923781;29;20235;-83
2021/12/23 03:44:07;;;;;;;13.38;7.72;;;-0.40;99.90;;;;;;4922795;29;20028;-83
2021/12/23 03:46:37;;;;;;;0.80;0.32;;;-0.40;99.90;;;;;;4923447;29;20031;-81
2021/12/23 03:49:04;;;;;;;0.00;0.00;;;-0.40;99.90;;;;;;4922919;29;20026;-84
2021/12/23 03:51:30;;;;;;;0.00;0.00;;;-0.40;99.90;;;;;;4906951;29;20024;-81
2021/12/23 03:53:56;;;;;;;0.00;0.00;;;-0.40;99.90;;;;;;4906918;29;20104;-87
2021/12/23 03:56:21;;;;;;;0.00;0.00;;;-0.40;99.90;;;;;;4924099;29;20024;-85
2021/12/23 03:58:47;;;;;;;0.00;0.00;;;-0.40;99.90;;;;;;4908333;29;20020;-86
2021/12/23 04:01:13;;;;;;;0.13;0.13;;;-0.40;99.90;;;;;;4925215;29;20272;-86
2021/12/23 04:03:39;;;;;;;0.75;0.73;;;-0.40;99.90;;;;;;4926949;29;20222;-86
2021/12/23 04:06:06;;;;;;;0.00;0.00;;;-0.40;99.90;;;;;;4926785;29;20032;-84
2021/12/23 04:08:31;;;;;;;9.40;5.85;;;-0.40;99.90;;;;;;4910515;29;20024;-83
2021/12/23 04:10:59;;;;;;;31.77;16.10;;;-0.40;99.90;;;;;;4925731;29;20059;-84
2021/12/23 04:13:26;;;;;;;34.43;16.80;;;-0.40;99.90;;;;;;4910331;29;20024;-83
2021/12/23 04:15:52;;;;;;;22.60;10.32;;;-0.40;99.90;;;;;;4910343;29;20028;-85
2021/12/23 04:18:18;;;;;;;16.17;7.03;;;-0.40;99.90;;;;;;4927361;29;20020;-85
2021/12/23 04:20:53;;;;;;;22.70;11.05;;;-0.40;99.90;;;;;;4925761;29;20031;-88
2021/12/23 04:26:09;;;;;;;22.13;10.52;;;-0.40;99.90;;;;;;4925582;29;20095;-81
2021/12/23 04:28:44;;;;;;;13.90;8.02;;;-0.40;99.90;;;;;;4912146;29;20046;-89
2021/12/23 04:31:11;;;;;;;0.00;0.00;;;-0.40;99.90;;;;;;4932666;29;20024;-89
2021/12/23 04:33:37;;;;;;;4.28;3.97;;;-0.30;99.90;;;;;;4927683;29;20103;-83
2021/12/23 04:36:02;;;;;;;0.38;0.38;;;-0.40;99.90;;;;;;4926634;29;20251;-82
2021/12/23 04:38:28;;;;;;;30.50;14.30;;;-0.30;99.90;;;;;;4911291;29;20024;-85
2021/12/23 04:40:54;;;;;;;30.52;16.02;;;-0.30;99.90;;;;;;4927434;29;20020;-85
2021/12/23 04:43:20;;;;;;;33.30;16.58;;;-0.30;99.90;;;;;;4910287;29;20427;-85
2021/12/23 04:45:46;;;;;;;29.63;15.65;;;-0.30;99.90;;;;;;4926907;29;20023;-89
2021/12/23 04:48:12;;;;;;;30.00;14.52;;;-0.30;99.90;;;;;;4926875;29;20024;-81
2021/12/23 04:50:38;;;;;;;8.82;4.90;;;-0.40;99.90;;;;;;4925866;29;20016;-83
2021/12/23 04:53:04;;;;;;;0.00;0.00;;;-0.30;99.90;;;;;;4924510;29;20035;-82
2021/12/23 04:55:49;;;;;;;0.47;0.47;;;-0.30;99.90;;;;;;4926226;29;20051;-83
2021/12/23 04:58:15;;;;;;;0.00;0.00;;;-0.30;99.90;;;;;;4925318;29;20051;-82
2021/12/23 05:00:42;;;;;;;0.00;0.00;;;-0.30;99.90;;;;;;4925341;29;20020;-82
2021/12/23 05:03:09;;;;;;;3.97;3.72;;;-0.40;99.90;;;;;;4924479;29;20095;-80
2021/12/23 05:05:36;;;;;;;0.00;0.00;;;-0.30;99.90;;;;;;4926388;29;20079;-81
2021/12/23 05:08:03;;;;;;;0.00;0.00;;;-0.30;99.90;;;;;;4925684;29;20016;-81
2021/12/23 05:10:29;;;;;;;1.90;1.80;;;-0.40;99.90;;;;;;4909123;29;20020;-81
2021/12/23 05:12:55;;;;;;;0.10;0.10;;;-0.30;99.90;;;;;;4904966;29;20057;-82
2021/12/23 05:15:21;;;;;;;33.45;17.23;;;-0.40;99.90;;;;;;4903750;29;20041;-84
2021/12/23 05:17:48;;;;;;;37.45;19.73;;;-0.50;99.90;;;;;;4919330;29;20247;-83
2021/12/23 05:20:16;;;;;;;34.65;19.92;;;-0.40;99.90;;;;;;4918626;29;20041;-82
2021/12/23 05:22:42;;;;;;;37.97;20.40;;;-0.40;99.90;;;;;;4903326;29;20107;-83
2021/12/23 05:25:10;;;;;;;33.17;18.60;;;-0.40;99.90;;;;;;4919742;29;20060;-80
2021/12/23 05:27:36;;;;;;;34.83;19.55;;;-0.40;99.90;;;;;;4921671;29;20028;-80
2021/12/23 05:30:07;;;;;;;34.65;18.65;;;-0.40;99.90;;;;;;4921762;29;20040;-86
2021/12/23 05:32:34;;;;;;;37.88;17.60;;;-0.40;99.90;;;;;;4908419;29;20031;-88
2021/12/23 05:35:02;;;;;;;38.10;18.15;;;-0.40;99.90;;;;;;4923438;29;20029;-86
2021/12/23 05:37:28;;;;;;;36.88;16.42;;;-0.40;99.90;;;;;;4923197;29;20037;-86
2021/12/23 05:39:53;;;;;;;37.22;17.58;;;-0.40;99.90;;;;;;4922541;29;20039;-86
2021/12/23 05:42:19;;;;;;;35.20;16.38;;;-0.40;99.90;;;;;;4922700;29;20026;-86
2021/12/23 05:44:45;;;;;;;37.20;15.00;;;-0.40;99.90;;;;;;4907777;29;20033;-85
2021/12/23 05:47:11;;;;;;;33.00;16.42;;;-0.30;99.90;;;;;;4921974;29;20024;-85
2021/12/23 05:49:38;;;;;;;30.92;15.60;;;-0.30;99.90;;;;;;4922277;29;20034;-86
2021/12/23 05:52:04;;;;;;;35.03;16.58;;;-0.40;99.90;;;;;;4922288;29;20023;-85
2021/12/23 05:54:30;;;;;;;28.90;14.32;;;-0.40;99.90;;;;;;4907126;29;20028;-84
2021/12/23 05:57:01;;;;;;;27.15;13.82;;;-0.30;99.90;;;;;;4924026;29;20024;-84
2021/12/23 05:59:31;;;;;;;19.75;10.75;;;-0.30;99.90;;;;;;4924603;29;20068;-85
2021/12/23 06:01:58;;;;;;;2.88;2.60;;;-0.30;99.90;;;;;;4910251;29;20087;-83
2021/12/23 06:04:25;;;;;;;0.45;0.45;;;-0.30;99.90;;;;;;4909868;29;20043;-84
2021/12/23 06:06:51;;;;;;;0.00;0.00;;;-0.20;99.90;;;;;;4909936;29;20027;-84
2021/12/23 06:09:17;;;;;;;0.32;0.32;;;-0.30;99.90;;;;;;4909209;29;20024;-83
2021/12/23 06:11:45;;;;;;;0.03;0.03;;;-0.30;99.90;;;;;;4915869;29;20064;-82
2021/12/23 06:14:11;;;;;;;31.17;14.05;;;-0.30;99.90;;;;;;4912269;29;20415;-88
2021/12/23 06:16:37;;;;;;;29.52;16.85;;;-0.30;99.90;;;;;;4929709;29;20100;-75
2021/12/23 06:19:03;;;;;;;35.80;17.08;;;-0.30;99.90;;;;;;4928722;29;20311;-79
2021/12/23 06:21:29;;;;;;;37.25;16.52;;;-0.30;99.90;;;;;;4912157;29;20027;-84
2021/12/23 06:23:55;;;;;;;29.80;15.75;;;-0.30;99.90;;;;;;4911432;29;20100;-83
2021/12/23 06:26:22;;;;;;;29.83;15.70;;;-0.30;99.90;;;;;;4928980;29;20052;-85
2021/12/23 06:28:48;;;;;;;5.47;3.22;;;-0.30;99.90;;;;;;4912071;29;20024;-84
2021/12/23 06:31:14;;;;;;;1.10;1.10;;;-0.30;99.90;;;;;;4928222;29;20087;-82
2021/12/23 06:33:40;;;;;;;1.55;1.25;;;-0.30;99.90;;;;;;4926908;29;20079;-83
2021/12/23 06:36:06;;;;;;;33.72;15.50;;;-0.30;99.90;;;;;;4925781;29;20024;-83
2021/12/23 06:38:31;;;;;;;26.05;15.77;;;-0.30;99.90;;;;;;4927887;29;20056;-74
2021/12/23 06:40:58;;;;;;;32.38;16.20;;;-0.30;99.90;;;;;;4925520;29;20103;-81
2021/12/23 06:43:24;;;;;;;28.77;14.95;;;-0.30;99.90;;;;;;4927521;29;20032;-80
2021/12/23 06:45:50;;;;;;;27.00;16.13;;;-0.30;99.90;;;;;;4927110;29;20039;-74
2021/12/23 06:48:15;;;;;;;27.05;15.60;;;-0.40;99.90;;;;;;4926228;29;20095;-78
2021/12/23 06:50:42;;;;;;;30.48;15.38;;;-0.40;99.90;;;;;;4911092;29;20023;-80
2021/12/23 06:53:08;;;;;;;27.60;14.38;;;-0.40;99.90;;;;;;4925905;29;20024;-82
2021/12/23 06:55:34;;;;;;;15.98;7.47;;;-0.30;99.90;;;;;;4927885;29;20346;-81
2021/12/23 06:58:00;;;;;;;25.75;14.05;;;-0.30;99.90;;;;;;4928204;29;20028;-85
2021/12/23 07:00:28;;;;;;;35.90;14.80;;;-0.30;99.90;;;;;;4927897;29;20020;-79
2021/12/23 07:02:54;;;;;;;26.70;13.88;;;-0.40;99.90;;;;;;4928096;29;20048;-86
2021/12/23 07:05:22;;;;;;;21.45;10.75;;;-0.40;99.90;;;;;;4927288;29;20028;-83
2021/12/23 07:08:05;;;;;;;30.90;16.15;;;-0.30;99.90;;;;;;4928532;29;20059;-81
2021/12/23 07:10:32;;;;;;;28.00;15.05;;;-0.30;99.90;;;;;;4926587;29;20028;-82
2021/12/23 07:13:02;;;;;;;32.55;16.83;;;-0.30;99.90;;;;;;4927131;29;20052;-81
2021/12/23 07:15:28;;;;;;;30.00;15.23;;;-0.40;99.90;;;;;;4927043;29;20036;-79
2021/12/23 07:17:56;;;;;;;30.63;14.23;;;-0.30;99.90;;;;;;4926878;29;20326;-83
2021/12/23 07:20:23;;;;;;;29.58;15.32;;;-0.40;99.90;;;;;;4927794;29;20024;-81
2021/12/23 07:22:49;;;;;;;26.63;14.93;;;-0.40;99.90;;;;;;4928055;29;20047;-80
2021/12/23 07:25:15;;;;;;;30.30;14.90;;;-0.30;99.90;;;;;;4910864;29;20207;-80
2021/12/23 07:27:43;;;;;;;32.03;16.27;;;-0.30;99.90;;;;;;4910777;29;20024;-80
2021/12/23 07:30:11;;;;;;;27.35;14.55;;;-0.30;99.90;;;;;;4926622;29;20044;-79
2021/12/23 07:32:37;;;;;;;30.10;15.35;;;-0.30;99.90;;;;;;4926550;29;20024;-80
2021/12/23 07:35:04;;;;;;;11.05;5.07;;;-0.30;99.90;;;;;;4925780;29;20032;-80
2021/12/23 07:37:30;;;;;;;16.52;8.18;;;-0.30;99.90;;;;;;4927516;29;20035;-80
2021/12/23 07:39:56;;;;;;;23.08;11.15;;;-0.30;99.90;;;;;;4925620;29;20020;-87
2021/12/23 07:42:22;;;;;;;7.60;5.40;;;-0.30;99.90;;;;;;4927156;29;20024;-82
2021/12/23 07:44:49;;;;;;;0.30;0.30;;;-0.40;99.90;;;;;;4926528;29;20047;-80
2021/12/23 07:47:16;;;;;;;3.33;0.85;;;-0.40;99.90;;;;;;4925487;29;20032;-82
2021/12/23 07:49:42;;;;;;;1.00;0.63;;;-0.30;99.90;;;;;;4926216;29;20031;-80
2021/12/23 07:52:08;;;;;;;0.00;0.00;;;-0.30;99.90;;;;;;4910117;29;20024;-81
2021/12/23 07:54:35;;;;;;;0.00;0.00;;;-0.40;99.90;;;;;;4926504;29;20031;-82
2021/12/23 07:57:02;;;;;;;0.00;0.00;;;-0.30;99.90;;;;;;4925775;29;20059;-82
2021/12/23 07:59:28;;;;;;;2.65;0.80;;;-0.30;99.90;;;;;;4926326;29;20027;-81
2021/12/23 08:01:55;;;;;;;26.17;13.82;;;-0.20;99.90;;;;;;4910549;29;20024;-80
2021/12/23 08:04:22;;;;;;;36.63;17.00;;;-0.20;99.90;;;;;;4927024;29;20103;-82
2021/12/23 08:06:54;;;;;;;26.83;16.05;;;-0.20;99.90;;;;;;4925885;29;20024;-80
2021/12/23 08:09:21;;;;;;;27.63;15.65;;;-0.20;99.90;;;;;;4925869;29;20070;-83
2021/12/23 08:11:47;;;;;;;23.15;13.38;;;-0.20;99.90;;;;;;4926798;29;20056;-81
2021/12/23 08:14:13;;;;;;;29.25;16.90;;;-0.20;99.90;;;;;;4925314;29;20206;-80
2021/12/23 08:16:38;;;;;;;27.95;15.23;;;-0.20;99.90;;;;;;4925568;29;20028;-81
2021/12/23 08:19:05;;;;;;;27.67;15.10;;;-0.20;99.90;;;;;;4925748;29;20069;-81
2021/12/23 08:21:31;;;;;;;33.80;16.15;;;-0.20;99.90;;;;;;4910598;29;20279;-75
2021/12/23 08:23:57;;;;;;;28.95;16.50;;;-0.20;99.90;;;;;;4927781;29;20095;-85
2021/12/23 08:26:27;;;;;;;30.48;15.32;;;-0.20;99.90;;;;;;4930324;29;20020;-81
2021/12/23 08:28:55;;;;;;;24.70;14.70;;;-0.20;99.90;;;;;;4929569;29;20020;-85
2021/12/23 08:31:21;;;;;;;36.30;15.88;;;-0.20;99.90;;;;;;4927564;29;20024;-82
2021/12/23 08:33:48;;;;;;;36.75;15.77;;;-0.20;99.90;;;;;;4930452;29;20030;-83
2021/12/23 08:36:14;;;;;;;28.83;16.15;;;-0.20;99.90;;;;;;4927753;29;20028;-83
2021/12/23 08:38:41;;;;;;;31.63;16.15;;;-0.10;99.90;;;;;;4913174;29;20068;-85
2021/12/23 08:41:08;;;;;;;30.75;16.42;;;-0.10;99.90;;;;;;4929203;29;20024;-85
2021/12/23 08:43:34;;;;;;;34.90;16.25;;;-0.10;99.90;;;;;;4928629;29;20044;-84
2021/12/23 08:46:00;;;;;;;30.92;16.73;;;-0.20;99.90;;;;;;4929475;29;20032;-84
2021/12/23 08:48:26;;;;;;;31.00;16.17;;;-0.20;99.90;;;;;;4928736;29;20020;-86
2021/12/23 08:50:52;;;;;;;30.08;16.70;;;-0.20;99.90;;;;;;4927258;29;20024;-86
2021/12/23 08:53:19;;;;;;;32.40;16.83;;;-0.10;99.90;;;;;;4924806;29;20051;-86
2021/12/23 08:55:45;;;;;;;26.70;14.88;;;-0.10;99.90;;;;;;4927077;29;20092;-86
2021/12/23 08:58:11;;;;;;;36.17;15.95;;;-0.10;99.90;;;;;;4925894;29;20020;-86
2021/12/23 09:00:38;;;;;;;32.83;16.17;;;-0.10;99.90;;;;;;4926906;29;20024;-84
2021/12/23 09:03:07;;;;;;;29.83;14.90;;;-0.10;99.90;;;;;;4926661;29;20020;-78
2021/12/23 09:05:35;;;;;;;27.58;15.57;;;0.00;99.90;;;;;;4928195;29;20028;-83
2021/12/23 09:08:02;;;;;;;30.92;17.35;;;0.00;99.90;;;;;;4927634;29;20020;-79
2021/12/23 09:10:28;;;;;;;32.33;16.73;;;0.00;99.90;;;;;;4926746;29;20076;-83
2021/12/23 09:12:54;;;;;;;30.48;15.35;;;0.00;99.90;;;;;;4930603;29;20055;-84
2021/12/23 09:15:20;;;;;;;33.05;15.68;;;0.00;99.90;;;;;;4911347;29;20031;-84
2021/12/23 09:17:46;;;;;;;31.95;16.45;;;0.00;99.90;;;;;;4928690;29;20024;-84
2021/12/23 09:20:14;;;;;;;32.45;16.70;;;0.10;99.90;;;;;;4927728;29;20039;-83
2021/12/23 09:22:41;;;;;;;26.70;14.98;;;0.00;99.90;;;;;;4911609;29;20080;-82
2021/12/23 09:25:12;;;;;;;30.92;15.90;;;0.00;99.90;;;;;;4928023;29;20087;-83
2021/12/23 09:27:58;;;;;;;31.10;15.63;;;0.00;99.90;;;;;;4927211;29;20035;-84
2021/12/23 09:33:10;;;;;;;34.15;16.52;;;0.00;99.90;;;;;;4927361;29;20223;-84
2021/12/23 09:35:37;;;;;;;29.80;17.30;;;0.00;99.90;;;;;;4926820;29;20055;-78
2021/12/23 09:38:03;;;;;;;40.80;16.13;;;0.10;99.90;;;;;;4907355;29;20032;-77
2021/12/23 09:40:29;;;;;;;29.23;16.17;;;0.10;99.90;;;;;;4924186;29;20036;-79
2021/12/23 09:43:00;;;;;;;30.02;15.20;;;0.10;99.90;;;;;;4923344;29;20031;-76
2021/12/23 09:45:46;;;;;;;33.00;17.45;;;0.00;99.90;;;;;;4923091;29;20032;-79
2021/12/23 09:48:14;;;;;;;32.22;16.88;;;0.10;99.90;;;;;;4924584;29;20084;-86
2021/12/23 09:50:41;;;;;;;31.05;16.48;;;0.10;99.90;;;;;;4926291;29;20330;-89
2021/12/23 09:53:08;;;;;;;28.85;15.27;;;0.00;99.90;;;;;;4926001;29;20039;-88
2021/12/23 09:55:35;;;;;;;30.73;16.63;;;0.10;99.90;;;;;;4924939;29;20286;-86
2021/12/23 09:58:03;;;;;;;30.73;16.17;;;0.10;99.90;;;;;;4924816;29;20337;-86
2021/12/23 10:00:34;;;;;;;29.50;16.23;;;0.10;99.90;;;;;;4908691;29;20288;-84
2021/12/23 10:03:00;;;;;;;30.10;16.17;;;0.10;99.90;;;;;;4926118;29;20028;-85
2021/12/23 10:05:29;;;;;;;30.90;15.65;;;0.10;99.90;;;;;;4925500;29;20034;-84
2021/12/23 10:07:55;;;;;;;29.83;14.98;;;0.10;99.90;;;;;;4925466;29;20287;-83
2021/12/23 10:10:35;;;;;;;32.17;16.80;;;0.20;99.90;;;;;;4908237;29;20102;-87
2021/12/23 10:26:54;;;;;;;29.90;16.45;;;0.20;99.90;;;;;;4920850;29;20045;-86
2021/12/23 10:28:13;;;;;;;33.03;15.75;;;0.20;99.90;;;;;;4905494;29;20112;-84
2021/12/23 10:38:13;;;;;;;30.17;15.73;;;0.20;99.90;;;;;;4904021;29;20223;-82
2021/12/23 10:41:05;;;;;;;32.10;15.15;;;0.20;99.90;;;;;;4919403;29;20025;-82
2021/12/23 10:43:32;;;;;;;28.85;14.25;;;0.30;99.90;;;;;;4918901;29;20314;-79
2021/12/23 10:46:02;;;;;;;31.38;15.55;;;0.30;99.90;;;;;;4919174;29;20041;-81
2021/12/23 10:48:32;;;;;;;27.52;14.52;;;0.30;99.90;;;;;;4904124;29;20025;-80
2021/12/23 10:51:07;;;;;;;32.33;15.25;;;0.30;99.90;;;;;;4919004;29;20055;-80
2021/12/23 10:59:26;;;;;;;25.15;13.80;;;0.30;99.90;;;;;;4904498;29;20228;-82
2021/12/23 11:02:20;;;;;;;30.08;14.15;;;0.30;99.90;;;;;;4918847;29;20152;-83
2021/12/23 11:05:08;;;;;;;29.25;14.45;;;0.40;99.90;;;;;;4918824;29;20024;-74
2021/12/23 11:11:01;;;;;;;30.80;16.00;;;0.30;99.90;;;;;;4904826;29;20024;-83
2021/12/23 11:37:06;;;;;;;32.53;15.38;;;0.40;99.90;;;;;;4920481;29;20051;-76
2021/12/23 11:39:51;;;;;;;28.58;15.00;;;0.40;99.90;;;;;;4921621;29;20027;-81
2021/12/23 11:45:15;;;;;;;27.08;14.73;;;0.40;99.90;;;;;;4889745;29;20028;-84
2021/12/23 11:47:41;;;;;;;28.48;14.50;;;0.40;99.90;;;;;;4921623;29;20198;-79
2021/12/23 11:50:07;;;;;;;26.45;13.75;;;0.40;99.90;;;;;;4921915;29;20310;-85
2021/12/23 11:52:34;;;;;;;25.45;13.95;;;0.40;99.90;;;;;;4921160;29;20100;-79
2021/12/23 11:55:00;;;;;;;30.10;16.20;;;0.40;99.90;;;;;;4920503;29;20059;-79
2021/12/23 11:57:31;;;;;;;30.73;14.82;;;0.50;99.90;;;;;;4921922;29;20028;-79
2021/12/23 12:00:32;;;;;;;26.35;14.15;;;0.50;99.90;;;;;;4920590;29;20300;-79
2021/12/23 12:03:03;;;;;;;29.73;14.38;;;0.50;99.90;;;;;;4921535;29;20050;-79
2021/12/23 12:05:33;;;;;;;24.92;14.27;;;0.50;99.90;;;;;;4921912;29;20066;-79
2021/12/23 12:08:06;;;;;;;28.92;15.77;;;0.50;99.90;;;;;;4921399;29;20079;-81
2021/12/23 12:10:33;;;;;;;26.02;14.00;;;0.50;99.90;;;;;;4921264;29;20024;-78
2021/12/23 12:13:08;;;;;;;29.57;14.93;;;0.50;99.90;;;;;;4920518;29;20047;-79
2021/12/23 12:15:38;;;;;;;30.88;14.73;;;0.50;99.90;;;;;;4920079;29;20075;-80
2021/12/23 12:18:07;;;;;;;30.77;15.73;;;0.60;99.90;;;;;;4921916;29;20046;-79
2021/12/23 12:20:55;;;;;;;29.75;15.57;;;0.60;99.90;;;;;;4922705;29;20020;-80
2021/12/23 12:23:39;;;;;;;30.08;16.38;;;0.60;99.90;;;;;;4920409;29;20322;-78
2021/12/23 12:26:10;;;;;;;31.25;15.75;;;0.60;99.90;;;;;;4920607;29;20039;-78
2021/12/23 12:28:44;;;;;;;26.10;14.50;;;0.60;99.90;;;;;;4921086;29;20054;-79
2021/12/23 12:31:20;;;;;;;29.88;15.30;;;0.60;99.90;;;;;;4904899;29;20114;-78
2021/12/23 12:33:53;;;;;;;29.20;15.40;;;0.60;99.90;;;;;;4921892;29;20020;-78
2021/12/23 12:36:19;;;;;;;34.40;16.08;;;0.60;99.90;;;;;;4908128;29;20031;-80
2021/12/23 12:38:47;;;;;;;30.05;15.63;;;0.50;99.90;;;;;;4924766;29;20024;-82
2021/12/23 12:41:39;;;;;;;32.50;15.48;;;0.50;99.90;;;;;;4924431;29;20301;-79
2021/12/23 12:44:11;;;;;;;22.98;14.02;;;0.50;99.90;;;;;;4922758;29;20036;-77
2021/12/23 12:49:22;;;;;;;33.75;15.30;;;0.60;99.90;;;;;;4926270;29;20155;-84
2021/12/23 12:51:48;;;;;;;32.05;16.00;;;0.50;99.90;;;;;;4926297;29;20016;-78
2021/12/23 12:54:19;;;;;;;36.38;15.57;;;0.60;99.90;;;;;;4923922;29;20055;-84
2021/12/23 12:56:57;;;;;;;26.92;14.27;;;0.60;99.90;;;;;;4926329;29;20024;-84
2021/12/23 12:59:24;;;;;;;;;;;0.60;99.90;;;;;;4925221;29;20040;-84
2021/12/23 13:01:52;;;;;;;29.38;15.25;;;0.70;99.90;;;;;;4926348;29;19903;-76
2021/12/23 13:04:28;;;;;;;33.58;16.00;;;0.60;99.90;;;;;;4925375;29;20416;-79
2021/12/23 13:06:56;;;;;;;33.40;16.05;;;0.70;99.90;;;;;;4926149;29;20024;-74
2021/12/23 13:09:29;;;;;;;31.02;15.27;;;0.60;99.90;;;;;;4925244;29;20027;-75
2021/12/23 13:11:59;;;;;;;31.42;16.27;;;0.60;99.90;;;;;;4924645;29;20056;-77
2021/12/23 13:14:50;;;;;;;30.38;16.25;;;0.60;99.90;;;;;;4923846;29;20034;-74
2021/12/23 13:17:22;;;;;;;31.15;15.80;;;0.70;99.90;;;;;;4907693;29;20284;-75
2021/12/23 13:19:50;;;;;;;30.88;15.60;;;0.70;99.90;;;;;;4925286;29;20040;-75
2021/12/23 13:22:18;;;;;;;35.60;15.68;;;0.70;99.90;;;;;;4924407;29;20063;-80
2021/12/23 13:24:44;;;;;;;27.05;15.68;;;0.70;99.90;;;;;;4908352;29;20032;-79
2021/12/23 13:27:10;;;;;;;32.72;14.75;;;0.60;99.90;;;;;;4924505;29;20020;-76
2021/12/23 13:29:40;;;;;;;27.27;15.52;;;0.60;99.90;;;;;;4923719;29;20091;-78
2021/12/23 13:32:05;;;;;;;28.13;15.82;;;0.60;99.90;;;;;;4923234;29;20031;-75
2021/12/23 13:34:33;;;;;;;27.42;14.45;;;0.60;99.90;;;;;;4925242;29;20028;-75
2021/12/23 13:37:08;;;;;;;33.65;16.02;;;0.60;99.90;;;;;;4923235;29;20055;-74
2021/12/23 13:39:37;;;;;;;36.10;16.65;;;0.70;99.90;;;;;;4924862;29;20111;-75
2021/12/23 13:42:08;;;;;;;28.13;14.90;;;0.70;99.90;;;;;;4922820;29;20024;-75
2021/12/23 13:44:34;;;;;;;33.75;16.42;;;0.70;99.90;;;;;;4923763;29;20063;-74
2021/12/23 13:47:03;;;;;;;34.10;15.32;;;0.70;99.90;;;;;;4906931;29;20036;-81
2021/12/23 13:49:35;;;;;;;29.33;15.80;;;0.60;99.90;;;;;;4908348;29;20027;-82
2021/12/23 13:52:05;;;;;;;33.42;16.77;;;0.60;99.90;;;;;;4923207;29;20028;-82
2021/12/23 13:54:34;;;;;;;27.35;15.05;;;0.70;99.90;;;;;;4923393;29;20323;-81